Blair, OK (73526)

9:52 AM CDT on July 26, 2016 (GMT -0500)
Altus Municipal | | Change Station

Elev 1434 ft 34.70 °N, 99.34 °W | Updated 17 minutes ago

Haze
Haze
80 °F
Feels Like 84 °F
N
10
Wind Variable Wind from ESE

Today
High -- | Low -- °F
--% Chance of Precip.
Yesterday
High -- | Low -- °F
Precip. -- in
Pressure 30.04 in
Visibility 4.0 miles
Clouds Scattered Clouds 7000 ft
Heat Index 84 °F
Dew Point 72 °F
Humidity 75%
Rainfall 0.00 in
Snow Depth Not available.
6:43 AM 8:44 PM
Waning Gibbous, 54% visible
METAR KAXS 261435Z AUTO 12009KT 4SM HZ SCT070 27/22 A3004 RMK AO2 T02670220
Pressure 30.04 in
Visibility 4.0 miles
Clouds Scattered Clouds 7000 ft
Heat Index 84 °F
Dew Point 72 °F
Humidity 75%
Rainfall 0.00 in
Snow Depth Not available.
6:43 AM 8:44 PM
Waning Gibbous, 54% visible
METAR KAXS 261435Z AUTO 12009KT 4SM HZ SCT070 27/22 A3004 RMK AO2 T02670220

10-Day Weather Forecast

Almanac

Astronomy

Jul. 26, 2016 Rise Set
Actual Time
Civil Twilight
Nautical Twilight
Astronomical Twilight
Moon
Length of Visible Light
Length of Day
Tomorrow will be .
, % of the Moon is Illuminated

Today's Extremes

State Highs State Lows

Community

WunderPhotos

Upload Photos

1,927,594 photos uploaded!

WunderBlog® & News

Nearby

Air Quality

  Air Quality AQ Index Pollutant
Not available.

Snow Depth

Station Depth Elevation

Earthquake Activity

City Distance Mag. Time & Date
Minimum magnitude displayed is 2.5.

Coastal Water Temperatures

Place Temperature

Stations

Nearby Weather Stations

Station Location Temp. Windchill Dew Point Humidity Wind Precip. Elev Updated Type
                   

Watches & Warnings

There are currently no watches in effect.